Flight Track Log - Related Links

Times and Time Zones

All times are in EDT time to prevent confusion due to time zone crossing. See the AWE2007 flight status page for this flight to view local times or setup timezone preferences in your user account.


Time Position Orientation Groundspeed Altitude Reporting Facility
EDT Latitude Longitude Course Direction KTS MPH feet Rate Location/Type
Sun 07:38:34 PM 28.0000 -82.5500 North 161 185 800  Level Tampa TRACON
Sun 07:39:16 PM 28.0167 -82.5500 360° North 157 181 2,100 2,368 Climbing Tampa TRACON
Sun 07:41:00 PM 28.3157 -82.5667 North  Level FlightAware Approximate
Sun 07:41:06 PM 28.1433 -82.5558 358° North 264 304 6,800  Level Jacksonville Center
Sun 07:42:00 PM 28.4338 -82.5717 355° North  Level FlightAware Approximate
Sun 07:42:06 PM 28.2183 -82.5650 354° North 269 310 9,800  Level Jacksonville Center
Sun 07:43:00 PM 28.5517 -82.5833 North  Level FlightAware Approximate
Sun 07:43:06 PM 28.3019 -82.5744 354° North 280 322 11,800  Level Jacksonville Center
Sun 07:44:06 PM 28.3978 -82.5833 355° North 318 366 14,300 2,500 Climbing Jacksonville Center
Sun 07:45:06 PM 28.4981 -82.5856 359° North 340 391 16,800 2,300 Climbing Jacksonville Center
Sun 07:46:06 PM 28.6003 -82.5875 359° North 359 413 18,900 2,050 Climbing Jacksonville Center
Sun 07:47:06 PM 28.7192 -82.5944 357° North 370 426 20,900 1,950 Climbing Jacksonville Center
Sun 07:48:06 PM 28.8300 -82.6106 353° North 380 437 22,800 1,900 Climbing Jacksonville Center
Sun 07:49:06 PM 28.9447 -82.6292 352° North 399 459 24,700 1,600 Climbing Jacksonville Center
Sun 07:50:06 PM 29.0639 -82.6431 354° North 416 479 26,000 1,100 Climbing Jacksonville Center
Sun 07:51:06 PM 29.1828 -82.6594 353° North 421 484 26,900 1,300 Climbing Jacksonville Center
Sun 07:52:06 PM 29.3039 -82.6783 352° North 427 491 28,600 1,550 Climbing Jacksonville Center
Sun 07:53:06 PM 29.4272 -82.6922 354° North 438 504 30,000 1,250 Climbing Jacksonville Center
Sun 07:54:06 PM 29.5419 -82.6944 359° North 446 513 31,100 1,250 Climbing Jacksonville Center
Sun 07:55:06 PM 29.6692 -82.6703 North 446 513 32,500 1,400 Climbing Jacksonville Center
Sun 07:56:06 PM 29.8047 -82.6172 19° North 452 520 33,900 1,350 Climbing Jacksonville Center
Sun 07:57:06 PM 29.9175 -82.5739 18° North 462 532 35,200 1,200 Climbing Jacksonville Center
Sun 07:58:06 PM 30.0425 -82.5303 17° North 462 532 36,300 1,050 Climbing Jacksonville Center
Sun 07:59:06 PM 30.1636 -82.4867 17° North 462 532 37,300 800 Climbing Jacksonville Center
Sun 08:00:06 PM 30.2867 -82.4403 18° North 456 525 37,900 700 Climbing Jacksonville Center
Sun 08:01:06 PM 30.4117 -82.3939 18° North 461 531 38,700 550 Climbing Jacksonville Center
Sun 08:02:06 PM 30.5325 -82.3500 17° North 461 531 39,000 150 Climbing Jacksonville Center
Sun 08:03:06 PM 30.6556 -82.3033 18° North 461 531 39,000  Level Jacksonville Center
Sun 08:04:06 PM 30.7786 -82.2567 18° North 461 531 39,000  Level Jacksonville Center
Sun 08:05:06 PM 30.9014 -82.2097 18° North 461 531 39,000  Level Jacksonville Center
Sun 08:06:06 PM 31.0286 -82.1628 18° North 461 531 39,000  Level Jacksonville Center
Sun 08:07:06 PM 31.1494 -82.1183 17° North 461 531 39,000  Level Jacksonville Center
Sun 08:08:06 PM 31.2744 -82.0711 18° North 461 531 39,000 -50 Level Jacksonville Center
Sun 08:09:06 PM 31.3972 -82.0236 18° North 461 531 38,900  Descending Jacksonville Center
Sun 08:10:06 PM 31.5286 -81.9711 19° North 462 532 39,000 50 Climbing Jacksonville Center
Sun 08:11:06 PM 31.6389 -81.9286 18° North 457 526 39,000  Level Jacksonville Center
Sun 08:12:06 PM 31.7719 -81.8783 18° North 462 532 39,000 50 Level Jacksonville Center
Sun 08:13:06 PM 31.8928 -81.8331 18° North 462 532 39,100  Climbing Jacksonville Center
Sun 08:14:06 PM 32.0011 -81.7903 19° North 457 526 39,000 -50 Descending Jacksonville Center
Sun 08:15:06 PM 32.1342 -81.7369 19° North 457 526 39,000  Level Jacksonville Center
Sun 08:16:06 PM 32.2506 -81.6939 17° North 457 526 39,000  Level Jacksonville Center
Sun 08:17:06 PM 32.3567 -81.6408 23° Northeast 457 526 39,000  Level Jacksonville Center
Sun 08:18:06 PM 32.4811 -81.5553 30° Northeast 465 535 39,000 50 Level Jacksonville Center
Sun 08:19:06 PM 32.5825 -81.4872 29° Northeast 465 535 39,100  Climbing Jacksonville Center
Sun 08:20:07 PM 32.7047 -81.3964 32° Northeast 465 535 39,000 -50 Descending Jacksonville Center
Sun 08:21:07 PM 32.8144 -81.3206 30° Northeast 465 535 39,000  Level Jacksonville Center
Sun 08:22:06 PM 32.9261 -81.2419 31° Northeast 465 535 39,000  Level Jacksonville Center
Sun 08:23:06 PM 33.0356 -81.1631 31° Northeast 465 535 39,000 -50 Level Jacksonville Center
Sun 08:24:07 PM 33.1453 -81.0839 31° Northeast 465 535 38,900 -50 Descending Jacksonville Center
Sun 08:25:06 PM 33.2506 -81.0097 30° Northeast 460 529 38,900  Level Jacksonville Center
Sun 08:26:06 PM 33.3600 -80.9331 30° Northeast 455 524 38,900 50 Level Jacksonville Center
Sun 08:27:06 PM 33.4694 -80.8533 31° Northeast 455 524 39,000 50 Climbing Jacksonville Center
Sun 08:28:07 PM 33.5767 -80.7761 31° Northeast 455 524 39,000  Level Jacksonville Center
Sun 08:29:06 PM 33.6839 -80.6986 31° Northeast 450 518 39,000  Level Jacksonville Center
Sun 08:30:06 PM 33.7931 -80.6183 31° Northeast 450 518 39,000 -50 Level Jacksonville Center
Sun 08:31:06 PM 33.9000 -80.5406 31° Northeast 450 518 38,900 -50 Descending Jacksonville Center
Sun 08:32:06 PM 33.9947 -80.4706 31° Northeast 445 512 38,900 50 Level Jacksonville Center
Sun 08:33:06 PM 34.1039 -80.3922 31° Northeast 445 512 39,000 50 Climbing Jacksonville Center
Sun 08:34:06 PM 34.2106 -80.3114 32° Northeast 445 512 39,000  Level Jacksonville Center
Sun 08:35:06 PM 34.3175 -80.2353 30° Northeast 445 512 39,000  Level Jacksonville Center
Sun 08:37:01 PM 34.5281 -80.0767 32° Northeast 442 509 39,000  Level Washington Center
Sun 08:38:01 PM 34.6267 -80.0011 32° Northeast 442 509 39,000  Level Washington Center
Sun 08:39:03 PM 34.7339 -79.9211 32° Northeast 448 516 39,000  Level Washington Center
Sun 08:40:03 PM 34.8431 -79.8433 30° Northeast 448 516 39,000  Level Washington Center
Sun 08:41:01 PM 34.9503 -79.7628 32° Northeast 453 521 39,000  Level Washington Center
Sun 08:42:02 PM 35.0617 -79.6797 31° Northeast 453 521 39,000  Level Washington Center
Sun 08:43:02 PM 35.1667 -79.5961 33° Northeast 453 521 39,000  Level Washington Center
Sun 08:44:03 PM 35.2642 -79.4892 42° Northeast 459 528 39,000  Level Washington Center
Sun 08:45:02 PM 35.3703 -79.3694 43° Northeast 459 528 39,000  Level Washington Center
Sun 08:46:03 PM 35.4547 -79.2739 43° Northeast 457 526 39,000 -496 Level Washington Center
Sun 08:47:03 PM 35.5456 -79.1658 44° Northeast 451 519 38,000 -1,017 Descending Washington Center
Sun 08:48:01 PM 35.6383 -79.0628 42° Northeast 446 513 37,000 -1,008 Descending Washington Center
Sun 08:49:02 PM 35.7333 -78.9517 43° Northeast 453 521 36,000 -984 Descending Washington Center
Sun 08:50:03 PM 35.8281 -78.8431 43° Northeast 459 528 35,000 -992 Descending Washington Center
Sun 08:51:03 PM 35.9397 -78.7294 39° Northeast 459 528 34,000 -500 Descending Washington Center
Sun 08:52:03 PM 36.0464 -78.6361 35° Northeast 465 535 34,000 -101 Level Washington Center
Sun 08:53:02 PM 36.1511 -78.5425 36° Northeast 465 535 33,800 -1,311 Descending Washington Center
Sun 08:54:02 PM 36.2533 -78.4511 36° Northeast 457 526 31,400 -2,529 Descending Washington Center
Sun 08:55:03 PM 36.3578 -78.3594 35° Northeast 457 526 28,700 -2,218 Descending Washington Center
Sun 08:56:01 PM 36.4578 -78.2700 36° Northeast 457 526 27,000 -857 Descending Washington Center
Sun 08:57:02 PM 36.5578 -78.1831 35° Northeast 452 520 27,000  Level Washington Center
Sun 08:58:02 PM 36.6453 -78.1003 37° Northeast 446 513 27,000  Level Washington Center
Sun 08:59:01 PM 36.7472 -78.0103 35° Northeast 441 507 27,000  Level Washington Center
Sun 09:00:01 PM 36.8428 -77.9225 36° Northeast 441 507 27,000  Level Washington Center
Sun 09:01:02 PM 36.9425 -77.8319 36° Northeast 441 507 27,000  Level Washington Center
Sun 09:02:03 PM 37.0422 -77.7411 36° Northeast 441 507 27,000  Level Washington Center
Sun 09:03:04 PM 37.1378 -77.6528 36° Northeast 441 507 27,000 -51 Level Washington Center
Sun 09:04:01 PM 37.2372 -77.5667 35° Northeast 441 507 26,900 -756 Descending Washington Center
Sun 09:05:03 PM 37.3347 -77.4750 37° Northeast 441 507 25,500 -1,500 Descending Washington Center
Sun 09:06:01 PM 37.4297 -77.3858 37° Northeast 436 502 23,900 -1,271 Descending Washington Center
Sun 09:07:01 PM 37.5267 -77.3175 29° Northeast 418 481 23,000 -694 Descending Washington Center
Sun 09:08:02 PM 37.6294 -77.2936 10° North 385 443 22,500 -1,220 Descending Washington Center
Sun 09:09:04 PM 37.7319 -77.2722 North 369 425 20,500 -2,218 Descending Washington Center
Sun 09:10:01 PM 37.8217 -77.2533 North 348 400 18,100 -1,932 Descending Washington Center
Sun 09:11:02 PM 37.9075 -77.2367 North 325 374 16,700 -1,426 Descending Washington Center
Sun 09:12:03 PM 37.9869 -77.2175 11° North 308 354 15,200 -1,525 Descending Washington Center
Sun 09:13:04 PM 38.0728 -77.2033 North 302 348 13,600 -1,576 Descending Washington Center
Sun 09:14:01 PM 38.1564 -77.1867 North 302 348 12,100 -1,322 Descending Washington Center
Sun 09:15:02 PM 38.2297 -77.1592 16° North 290 334 11,000 -1,150 Descending Washington Center
Sun 09:16:01 PM 38.2764 -77.0886 50° Northeast 260 299 9,800 -1,279 Descending Washington Center
Sun 09:17:04 PM 38.3292 -77.0342 39° Northeast 249 287 8,400 -1,400 Descending Washington Center
Sun 09:18:01 PM 38.3861 -76.9903 31° Northeast 243 280 7,000 -1,282 Descending Washington Center
Sun 09:19:01 PM 38.4425 -76.9939 357° North 208 239 5,900 -1,131 Descending Washington Center
Sun 09:20:03 PM 38.5006 -77.0003 355° North 202 232 4,700 -1,230 Descending Washington Center
Sun 09:21:03 PM 38.5547 -77.0094 352° North 196 226 3,400 -913 Descending Washington Center
Sun 09:22:21 PM 38.6333 -77.0167 356° North 187 215 2,600 -348 Descending Potomac TRACON
Sun 09:23:21 PM 38.6833 -77.0167 360° North 151 174 2,600 -50 Level Potomac TRACON
Sun 09:24:21 PM 38.7167 -77.0167 360° North 147 169 2,500 -450 Descending Potomac TRACON
Sun 09:25:21 PM 38.7667 -77.0333 345° North 147 169 1,700 -750 Descending Potomac TRACON
Sun 09:26:21 PM 38.8000 -77.0333 360° North 133 153 1,000 -645 Descending Potomac TRACON
Sun 09:27:22 PM 38.8333 -77.0333 360° North 119 137 400 -590 Descending Potomac TRACON

Login

Don't have an account? Register now (free) for customized features, flight alerts, and more!